Impacts TAF Board
For situational awareness. Not to be used for flight planning purposes.
IDs:

KSTL - St Louis/Lambert Int, MO, US

Issued at 1735 UTC 20 Sep 2018
Updated at 2007 UTC 20 Sep 2018
Potential Impact None Slight Moderate High
Time1951Z 20/21Z 20/22Z 20/23Z 21/00Z 21/01Z 21/02Z 21/03Z 21/04Z 21/05Z 21/06Z 21/07Z 21/08Z 21/09Z>>
Type OBS PRVL PRVL PRVL PRVL PRVL PRVL PRVL PRVL PRVL PRVL PRVL PRVL PRVL
VIS 10 >6 >6 >6 >6 >6 >6 >6 >6 >6 >6 >6 >6 >6
CIG -- -- -- -- -- 150 150 150 150 150 150 150 150 150
Cover SCT SCT SCT SCT SCT BKN BKN BKN BKN BKN BKN BKN BKN BKN
FltCat VFR VFR VFR VFR VFR VFR VFR VFR VFR VFR VFR VFR VFR VFR
WX -- -- -- -- -- -- -- -- -- -- -- -- -- --
WDir 200 200 200 200 200 220 220 220 220 220 220 220 220 220
WSpd 12 9 9 9 9 8 8 8 8 8 8 8 8 8
WGst 17 -- -- -- -- -- -- -- -- -- -- -- -- --
Raw TAF
KSTL 201735Z 2018/2124 20009KT P6SM SCT050
  FM210100 22008KT P6SM BKN150
  FM211600 29008KT P6SM BKN040
  FM212300 35008KT P6SM BKN130


Raw METAR
KSTL 201951Z 20012G17KT 10SM FEW050 SCT100 34/21 A2993 RMK AO2 SLP120 T03440211
KSTL 201851Z 21010KT 10SM SCT049 34/21 A2995 RMK AO2 SLP126 T03440211
KSTL 201751Z 22013KT 10SM FEW050 34/21 A2997 RMK AO2 SLP134 T03390211 10339 20244 58011

METAR Board
Radar Display
Forecast Discussion
For situational awareness. Not to be used for flight planning purposes.